createdAt,value
2023-03-24T00:02:01.388Z,9.10
2023-03-24T00:04:29.780Z,10.13
2023-03-24T00:06:57.450Z,10.88
2023-03-24T00:09:26.374Z,9.75
2023-03-24T00:11:53.833Z,11.25
2023-03-24T00:14:21.421Z,10.27
2023-03-24T00:16:50.224Z,9.77
2023-03-24T00:19:18.264Z,10.80
2023-03-24T00:21:48.105Z,11.23
2023-03-24T00:24:15.636Z,9.48
2023-03-24T00:26:44.677Z,10.82
2023-03-24T00:29:13.970Z,9.90
2023-03-24T00:31:42.966Z,10.80
2023-03-24T00:34:12.371Z,9.70
2023-03-24T00:36:41.007Z,10.13
2023-03-24T00:39:08.628Z,9.95
2023-03-24T00:41:36.200Z,11.05
2023-03-24T00:46:57.503Z,9.07
2023-03-24T00:49:42.136Z,10.07
2023-03-24T00:54:39.976Z,10.23
2023-03-24T00:57:07.997Z,10.38
2023-03-24T00:59:42.374Z,9.98
2023-03-24T01:04:41.016Z,9.60
2023-03-24T01:07:11.099Z,11.18
2023-03-24T01:09:38.799Z,8.75
2023-03-24T01:12:07.067Z,11.18
2023-03-24T01:14:34.689Z,10.23
2023-03-24T01:17:03.678Z,9.07
2023-03-24T01:19:33.079Z,11.43
2023-03-24T01:22:00.817Z,9.77
2023-03-24T01:24:28.464Z,10.57
2023-03-24T01:26:56.059Z,9.85
2023-03-24T01:29:23.639Z,7.97
2023-03-24T01:31:51.201Z,8.65
2023-03-24T01:34:20.090Z,9.35
2023-03-24T01:36:47.660Z,10.35
2023-03-24T01:39:15.507Z,10.23
2023-03-24T01:41:43.068Z,8.65
2023-03-24T01:44:30.561Z,9.60
2023-03-24T01:46:58.913Z,9.85
2023-03-24T01:49:29.574Z,9.73
2023-03-24T01:51:58.402Z,9.30
2023-03-24T01:54:27.871Z,8.73
2023-03-24T01:56:58.333Z,8.50
2023-03-24T01:59:28.455Z,8.63
2023-03-24T02:02:03.073Z,9.57
2023-03-24T02:04:34.647Z,8.80
2023-03-24T02:07:03.632Z,8.93
2023-03-24T02:09:31.192Z,8.85
2023-03-24T02:11:59.068Z,8.90
2023-03-24T02:14:26.618Z,9.48
2023-03-24T02:17:03.586Z,8.80
2023-03-24T02:19:58.469Z,8.70
2023-03-24T02:22:42.341Z,10.10
2023-03-24T02:25:30.628Z,8.75
2023-03-24T02:28:06.270Z,7.95
2023-03-24T02:30:40.275Z,8.48
2023-03-24T02:33:26.013Z,8.85
2023-03-24T02:36:03.835Z,8.10
2023-03-24T02:38:47.758Z,9.40
2023-03-24T02:41:21.433Z,9.25
2023-03-24T02:43:53.883Z,8.65
2023-03-24T02:46:23.952Z,9.27
2023-03-24T02:48:57.903Z,9.25
2023-03-24T02:51:27.402Z,9.93
2023-03-24T02:54:00.634Z,8.80
2023-03-24T02:56:33.371Z,8.95
2023-03-24T02:59:03.441Z,8.77
2023-03-24T03:01:33.201Z,8.65
2023-03-24T03:04:03.106Z,8.90
2023-03-24T03:06:31.735Z,9.82
2023-03-24T03:09:00.289Z,9.65
2023-03-24T03:11:28.075Z,9.38
2023-03-24T03:13:59.013Z,8.80
2023-03-24T03:16:34.613Z,9.13
2023-03-24T03:19:05.616Z,8.70
2023-03-24T03:21:36.158Z,8.82
2023-03-24T03:24:06.002Z,9.80
2023-03-24T03:26:34.888Z,8.80
2023-03-24T03:29:06.654Z,9.05
2023-03-24T03:31:36.164Z,11.60
2023-03-24T03:34:08.379Z,9.50
2023-03-24T03:36:41.294Z,9.45
2023-03-24T03:39:11.854Z,10.50
2023-03-24T03:41:39.785Z,9.23
2023-03-24T03:44:08.748Z,8.63
2023-03-24T03:46:37.005Z,9.57
2023-03-24T03:49:05.242Z,9.60
2023-03-24T03:51:33.818Z,9.38
2023-03-24T03:54:02.550Z,8.90
2023-03-24T03:56:31.610Z,9.35
2023-03-24T03:58:59.306Z,9.70
2023-03-24T04:01:28.913Z,9.65
2023-03-24T04:04:09.181Z,9.38
2023-03-24T04:06:38.803Z,9.32
2023-03-24T04:09:11.056Z,10.05
2023-03-24T04:11:50.337Z,9.93
2023-03-24T04:14:24.772Z,9.00
2023-03-24T04:16:57.706Z,10.60
2023-03-24T04:19:33.957Z,9.77
2023-03-24T04:22:05.873Z,9.13
2023-03-24T04:24:40.357Z,9.38
2023-03-24T04:27:11.356Z,9.43
2023-03-24T04:29:42.721Z,9.45
2023-03-24T04:32:19.535Z,9.57
2023-03-24T04:34:51.140Z,9.45
2023-03-24T04:37:20.594Z,9.20
2023-03-24T04:39:49.747Z,8.77
2023-03-24T04:42:19.960Z,9.75
2023-03-24T04:44:51.413Z,9.82
2023-03-24T04:47:21.432Z,9.95
2023-03-24T04:49:48.987Z,10.23
2023-03-24T04:52:17.983Z,10.25
2023-03-24T04:54:46.673Z,11.60
2023-03-24T04:57:14.204Z,9.68
2023-03-24T04:59:43.090Z,8.65
2023-03-24T05:02:10.973Z,10.23
2023-03-24T05:04:40.128Z,9.73
2023-03-24T05:07:07.667Z,9.90
2023-03-24T05:09:36.043Z,11.02
2023-03-24T05:12:03.822Z,8.98
2023-03-24T05:14:31.285Z,10.30
2023-03-24T05:16:58.925Z,11.02
2023-03-24T05:19:26.426Z,10.40
2023-03-24T05:21:55.310Z,10.60
2023-03-24T05:24:22.928Z,10.38
2023-03-24T05:26:50.662Z,9.25
2023-03-24T05:29:18.144Z,10.20
2023-03-24T05:31:45.989Z,11.85
2023-03-24T05:34:13.511Z,11.40
2023-03-24T05:36:41.141Z,12.05
2023-03-24T05:39:10.138Z,13.38
2023-03-24T05:41:37.602Z,13.60
2023-03-24T05:44:05.356Z,12.63
2023-03-24T05:46:33.337Z,13.98
2023-03-24T05:49:00.866Z,12.70
2023-03-24T05:51:28.654Z,11.45
2023-03-24T05:53:56.182Z,10.85
2023-03-24T05:56:25.363Z,9.68
2023-03-24T05:58:52.906Z,8.85
2023-03-24T06:01:21.900Z,8.88
2023-03-24T06:03:49.632Z,9.05
2023-03-24T06:06:18.570Z,9.88
2023-03-24T06:08:46.396Z,8.65
2023-03-24T06:11:14.350Z,9.43
2023-03-24T06:13:43.295Z,10.20
2023-03-24T06:16:11.073Z,9.35
2023-03-24T06:18:40.469Z,9.13
2023-03-24T06:21:08.332Z,9.55
2023-03-24T06:23:36.136Z,9.95
2023-03-24T06:26:08.916Z,9.60
2023-03-24T06:28:36.444Z,9.98
2023-03-24T06:31:07.350Z,9.55
2023-03-24T06:33:39.990Z,9.13
2023-03-24T06:36:10.837Z,9.55
2023-03-24T06:38:38.517Z,9.43
2023-03-24T06:41:06.610Z,9.95
2023-03-24T06:43:34.490Z,8.68
2023-03-24T06:46:02.168Z,11.00
2023-03-24T06:48:33.728Z,10.20
2023-03-24T06:51:01.665Z,10.20
2023-03-24T06:53:29.431Z,10.63
2023-03-24T06:55:56.939Z,10.15
2023-03-24T06:58:24.467Z,9.65
2023-03-24T07:00:52.122Z,9.65
2023-03-24T07:03:22.720Z,10.88
2023-03-24T07:05:52.035Z,8.68
2023-03-24T07:08:34.518Z,9.30
2023-03-24T07:11:07.031Z,8.98
2023-03-24T07:13:35.049Z,9.88
2023-03-24T07:16:02.645Z,9.13
2023-03-24T07:18:30.241Z,10.48
2023-03-24T07:20:59.065Z,9.50
2023-03-24T07:23:27.614Z,11.88
2023-03-24T07:25:55.310Z,8.90
2023-03-24T07:28:22.962Z,8.93
2023-03-24T07:30:50.792Z,8.95
2023-03-24T07:33:23.054Z,10.43
2023-03-24T07:35:50.748Z,10.23
2023-03-24T07:38:19.658Z,9.70
2023-03-24T07:40:48.289Z,10.25
2023-03-24T07:43:15.919Z,9.52
2023-03-24T07:45:45.540Z,9.75
2023-03-24T07:48:13.354Z,10.45
2023-03-24T07:50:41.262Z,9.25
2023-03-24T07:53:09.857Z,10.23
2023-03-24T07:55:43.092Z,9.10
2023-03-24T07:58:10.888Z,10.07
2023-03-24T08:00:38.844Z,8.82
2023-03-24T08:03:09.640Z,9.40
2023-03-24T08:05:38.521Z,9.27
2023-03-24T08:08:06.769Z,9.98
2023-03-24T08:10:34.746Z,10.38
2023-03-24T08:13:06.610Z,13.20
2023-03-24T08:15:34.158Z,9.63
2023-03-24T08:18:01.853Z,11.05
2023-03-24T08:20:29.619Z,9.75
2023-03-24T08:22:57.178Z,10.18
2023-03-24T08:25:26.127Z,9.55
2023-03-24T08:27:54.062Z,9.20
2023-03-24T08:30:23.863Z,9.60
2023-03-24T08:32:54.293Z,9.20
2023-03-24T08:35:22.813Z,9.20
2023-03-24T08:37:50.888Z,9.23
2023-03-24T08:40:20.498Z,9.57
2023-03-24T08:42:50.941Z,9.95
2023-03-24T08:45:21.041Z,10.27
2023-03-24T08:47:52.061Z,11.30
2023-03-24T08:50:23.836Z,9.40
2023-03-24T08:52:51.673Z,9.50
2023-03-24T08:55:20.262Z,9.48
2023-03-24T08:57:48.191Z,9.40
2023-03-24T09:00:16.601Z,11.85
2023-03-24T09:02:46.635Z,9.90
2023-03-24T09:05:18.033Z,9.77
2023-03-24T09:07:46.659Z,11.13
2023-03-24T09:10:14.918Z,10.00
2023-03-24T09:12:43.133Z,9.00
2023-03-24T09:15:13.448Z,8.50
2023-03-24T09:17:41.435Z,9.45
2023-03-24T09:20:11.827Z,10.52
2023-03-24T09:22:43.852Z,8.90
2023-03-24T09:25:12.402Z,9.30
2023-03-24T09:27:40.401Z,9.35
2023-03-24T09:30:09.663Z,9.70
2023-03-24T09:32:37.406Z,9.10
2023-03-24T09:35:05.975Z,9.85
2023-03-24T09:37:33.897Z,10.43
2023-03-24T09:40:04.123Z,9.63
2023-03-24T09:45:27.622Z,9.50
2023-03-24T09:47:57.498Z,9.70
2023-03-24T09:50:26.610Z,9.57
2023-03-24T09:55:49.843Z,8.75
2023-03-24T09:58:17.956Z,8.10
2023-03-24T10:00:48.046Z,9.80
2023-03-24T10:03:21.421Z,9.43
2023-03-24T10:05:51.981Z,9.03
2023-03-24T10:08:24.794Z,9.65
2023-03-24T10:10:58.785Z,9.27
2023-03-24T10:16:22.599Z,9.20
2023-03-24T10:18:53.719Z,9.65
2023-03-24T10:21:23.552Z,10.15
2023-03-24T10:23:54.585Z,8.63
2023-03-24T10:26:32.463Z,8.75
2023-03-24T10:29:05.204Z,9.18
2023-03-24T10:31:34.833Z,9.38
2023-03-24T10:34:04.698Z,9.40
2023-03-24T10:36:32.515Z,8.10
2023-03-24T10:39:12.664Z,8.07
2023-03-24T10:41:47.595Z,8.23
2023-03-24T10:47:10.389Z,9.27
2023-03-24T10:49:38.721Z,9.63
2023-03-24T10:52:10.454Z,10.77
2023-03-24T10:54:54.158Z,8.55
2023-03-24T11:00:24.714Z,9.27
2023-03-24T11:02:57.190Z,8.45
2023-03-24T11:05:29.954Z,9.60
2023-03-24T11:08:00.194Z,8.88
2023-03-24T11:10:28.202Z,8.10
2023-03-24T11:13:05.208Z,9.02
2023-03-24T11:15:33.689Z,7.68
2023-03-24T11:18:02.637Z,6.35
2023-03-24T11:23:27.852Z,7.88
2023-03-24T11:26:03.224Z,6.63
2023-03-24T11:28:36.569Z,6.55
2023-03-24T11:31:08.043Z,6.33
2023-03-24T11:33:43.297Z,6.20
2023-03-24T11:36:26.022Z,6.82
2023-03-24T11:39:01.449Z,6.63
2023-03-24T11:41:28.960Z,5.95
2023-03-24T11:44:09.085Z,6.82
2023-03-24T11:47:01.160Z,5.95
2023-03-24T11:49:32.425Z,6.47
2023-03-24T11:52:00.469Z,7.03
2023-03-24T11:54:32.472Z,5.78
2023-03-24T11:57:04.596Z,5.75
2023-03-24T11:59:41.371Z,5.72
2023-03-24T12:05:27.571Z,6.50
2023-03-24T12:08:00.137Z,6.78
2023-03-24T12:16:34.199Z,5.38
2023-03-24T12:19:12.162Z,5.60
2023-03-24T12:21:44.165Z,5.05
2023-03-24T12:24:17.412Z,5.53
2023-03-24T12:29:44.458Z,4.93
2023-03-24T12:32:25.567Z,4.65
2023-03-24T12:35:02.975Z,4.03
2023-03-24T12:37:34.936Z,4.30
2023-03-24T12:40:10.292Z,4.82
2023-03-24T12:42:40.246Z,4.53
2023-03-24T12:45:15.475Z,4.40
2023-03-24T12:47:54.156Z,4.90
2023-03-24T12:50:27.761Z,4.32
2023-03-24T12:53:08.366Z,4.43
2023-03-24T12:55:41.137Z,4.28
2023-03-24T12:58:12.575Z,3.85
2023-03-24T13:00:43.102Z,4.80
2023-03-24T13:03:13.682Z,3.90
2023-03-24T13:05:43.824Z,4.20
2023-03-24T13:08:16.575Z,3.50
2023-03-24T13:10:47.699Z,3.97
2023-03-24T13:13:18.465Z,4.65
2023-03-24T13:15:48.241Z,4.30
2023-03-24T13:18:25.480Z,3.92
2023-03-24T13:20:55.548Z,4.05
2023-03-24T13:23:32.409Z,4.40
2023-03-24T13:26:03.620Z,3.90
2023-03-24T13:28:36.545Z,4.07
2023-03-24T13:31:05.184Z,3.95
2023-03-24T13:33:36.414Z,4.05
2023-03-24T13:36:13.826Z,4.35
2023-03-24T13:38:43.532Z,3.78
2023-03-24T13:41:14.408Z,6.53
2023-03-24T13:43:48.511Z,5.18
2023-03-24T13:46:18.051Z,3.70
2023-03-24T13:48:47.938Z,4.63
2023-03-24T13:51:18.305Z,3.88
2023-03-24T13:53:47.412Z,4.28
2023-03-24T13:56:26.692Z,4.55
2023-03-24T13:59:08.782Z,3.92
2023-03-24T14:01:38.004Z,3.83
2023-03-24T14:04:24.121Z,4.03
2023-03-24T14:06:54.001Z,3.80
2023-03-24T14:09:22.599Z,3.95
2023-03-24T14:11:51.605Z,3.83
2023-03-24T14:14:21.359Z,3.30
2023-03-24T14:16:51.954Z,4.00
2023-03-24T14:19:24.642Z,4.47
2023-03-24T14:21:58.569Z,4.57
2023-03-24T14:24:27.395Z,5.20
2023-03-24T14:26:55.087Z,4.13
2023-03-24T14:29:43.839Z,4.00
2023-03-24T14:32:20.092Z,5.07
2023-03-24T14:34:57.256Z,5.50
2023-03-24T14:37:27.805Z,5.15
2023-03-24T14:39:57.529Z,5.00
2023-03-24T14:42:29.393Z,4.40
2023-03-24T14:44:57.937Z,5.05
2023-03-24T14:47:29.267Z,4.72
2023-03-24T14:49:58.245Z,4.38
2023-03-24T14:52:32.523Z,4.72
2023-03-24T14:57:31.623Z,5.30
2023-03-24T15:00:06.846Z,6.10
2023-03-24T15:02:37.620Z,6.70
2023-03-24T15:05:32.267Z,5.97
2023-03-24T15:08:03.334Z,5.55
2023-03-24T15:10:34.146Z,5.68
2023-03-24T15:13:01.821Z,6.75
2023-03-24T15:15:29.377Z,7.10
2023-03-24T15:17:56.972Z,6.03
2023-03-24T15:20:25.594Z,5.95
2023-03-24T15:22:55.191Z,6.25
2023-03-24T15:25:28.324Z,5.00
2023-03-24T15:27:57.756Z,5.40
2023-03-24T15:30:25.865Z,6.72
2023-03-24T15:32:54.962Z,6.32
2023-03-24T15:35:23.956Z,6.43
2023-03-24T15:37:52.651Z,6.00
2023-03-24T15:43:22.800Z,6.55
2023-03-24T15:46:04.852Z,6.30
2023-03-24T15:48:37.911Z,6.88
2023-03-24T15:51:07.954Z,6.93
2023-03-24T15:53:44.727Z,6.40
2023-03-24T15:56:21.638Z,6.97
2023-03-24T15:58:51.305Z,5.90
2023-03-24T16:01:20.420Z,6.63
2023-03-24T16:03:49.391Z,6.95
2023-03-24T16:06:24.531Z,6.07
2023-03-24T16:08:52.219Z,6.22
2023-03-24T16:11:22.331Z,5.95
2023-03-24T16:13:49.867Z,7.13
2023-03-24T16:16:25.770Z,6.20
2023-03-24T16:18:53.476Z,5.95
2023-03-24T16:21:22.219Z,6.78
2023-03-24T16:23:50.580Z,5.93
2023-03-24T16:26:18.859Z,6.75
2023-03-24T16:28:48.275Z,6.88
2023-03-24T16:34:14.136Z,7.38
2023-03-24T16:36:41.855Z,7.43
2023-03-24T16:39:15.790Z,7.50
2023-03-24T16:41:46.808Z,7.78
2023-03-24T16:44:19.943Z,8.10
2023-03-24T16:46:48.358Z,8.25
2023-03-24T16:49:17.022Z,8.70
2023-03-24T16:51:44.949Z,7.68
2023-03-24T16:54:13.012Z,8.25
2023-03-24T16:56:42.383Z,7.90
2023-03-24T16:59:10.746Z,8.18
2023-03-24T17:01:40.168Z,9.80
2023-03-24T17:04:09.722Z,9.00
2023-03-24T17:06:37.914Z,8.13
2023-03-24T17:09:06.830Z,8.90
2023-03-24T17:11:36.291Z,8.68
2023-03-24T17:14:05.798Z,7.72
2023-03-24T17:16:36.630Z,8.90
2023-03-24T17:19:05.814Z,8.85
2023-03-24T17:21:34.613Z,9.45
2023-03-24T17:24:02.635Z,9.25
2023-03-24T17:26:32.214Z,9.30
2023-03-24T17:28:59.822Z,10.60
2023-03-24T17:31:27.416Z,8.95
2023-03-24T17:33:54.931Z,10.27
2023-03-24T17:36:23.963Z,8.60
2023-03-24T17:38:51.737Z,9.13
2023-03-24T17:41:19.401Z,8.73
2023-03-24T17:46:29.091Z,10.25
2023-03-24T17:48:56.648Z,9.13
2023-03-24T17:51:25.681Z,9.43
2023-03-24T17:53:54.454Z,9.95
2023-03-24T17:56:22.005Z,11.00
2023-03-24T17:58:49.934Z,9.90
2023-03-24T18:01:21.226Z,9.88
2023-03-24T18:03:50.009Z,12.05
2023-03-24T18:06:17.993Z,11.20
2023-03-24T18:08:46.864Z,9.85
2023-03-24T18:11:15.393Z,11.57
2023-03-24T18:13:43.145Z,13.50
2023-03-24T18:16:21.369Z,12.32
2023-03-24T18:18:50.503Z,11.45
2023-03-24T18:21:18.380Z,11.15
2023-03-24T18:23:48.535Z,12.43
2023-03-24T18:26:17.543Z,11.02
2023-03-24T18:28:46.004Z,10.60
2023-03-24T18:31:15.597Z,10.82
2023-03-24T18:33:46.255Z,9.95
2023-03-24T18:36:16.554Z,10.75
2023-03-24T18:38:44.502Z,11.18
2023-03-24T18:41:14.218Z,10.57
2023-03-24T18:43:41.919Z,9.93
2023-03-24T18:46:10.459Z,8.50
2023-03-24T18:48:38.401Z,8.57
2023-03-24T18:51:06.103Z,8.32
2023-03-24T18:53:34.479Z,7.90
2023-03-24T18:56:02.953Z,8.18
2023-03-24T18:58:32.154Z,8.40
2023-03-24T19:01:01.155Z,8.43
2023-03-24T19:03:29.375Z,8.50
2023-03-24T19:06:01.497Z,9.52
2023-03-24T19:08:29.013Z,10.38
2023-03-24T19:10:56.644Z,10.18
2023-03-24T19:13:24.250Z,9.68
2023-03-24T19:15:55.212Z,8.70
2023-03-24T19:18:23.350Z,9.27
2023-03-24T19:20:52.708Z,9.07
2023-03-24T19:23:20.601Z,9.05
2023-03-24T19:25:54.969Z,8.95
2023-03-24T19:28:22.558Z,11.52
2023-03-24T19:30:50.724Z,10.02
2023-03-24T19:33:20.150Z,11.45
2023-03-24T19:35:47.967Z,10.05
2023-03-24T19:38:15.689Z,10.38
2023-03-24T19:40:43.681Z,10.57
2023-03-24T19:43:15.292Z,10.57
2023-03-24T19:49:33.401Z,10.07
2023-03-24T19:52:34.040Z,11.52
2023-03-24T19:55:08.575Z,10.65
2023-03-24T19:58:06.184Z,9.95
2023-03-24T20:00:34.248Z,10.43
2023-03-24T20:03:02.159Z,9.20
2023-03-24T20:05:34.236Z,8.07
2023-03-24T20:08:04.534Z,8.63
2023-03-24T20:10:41.389Z,9.10
2023-03-24T20:14:03.637Z,9.13
2023-03-24T20:16:31.277Z,8.73
2023-03-24T20:18:58.983Z,9.43
2023-03-24T20:21:28.290Z,9.02
2023-03-24T20:24:01.234Z,9.27
2023-03-24T20:26:31.867Z,8.98
2023-03-24T20:43:07.994Z,9.55
2023-03-24T20:45:35.688Z,9.57
2023-03-24T20:48:03.498Z,9.63
2023-03-24T20:50:31.311Z,8.88
2023-03-24T20:52:58.838Z,10.27
2023-03-24T20:55:26.689Z,10.15
2023-03-24T20:57:55.928Z,10.30
2023-03-24T21:00:24.206Z,11.38
2023-03-24T21:02:54.621Z,10.52
2023-03-24T21:05:22.139Z,10.30
2023-03-24T21:07:52.488Z,10.30
2023-03-24T21:10:22.720Z,9.45
2023-03-24T21:12:53.434Z,10.75
2023-03-24T21:15:25.124Z,10.82
2023-03-24T21:17:53.318Z,9.82
2023-03-24T21:20:20.909Z,10.52
2023-03-24T21:22:53.120Z,10.13
2023-03-24T21:25:21.410Z,11.00
2023-03-24T21:27:51.380Z,10.65
2023-03-24T21:30:19.415Z,9.85
2023-03-24T21:32:48.776Z,9.63
2023-03-24T21:35:24.546Z,10.43
2023-03-24T21:37:53.768Z,12.05
2023-03-24T21:40:22.932Z,10.02
2023-03-24T21:42:50.922Z,11.00
2023-03-24T21:45:19.293Z,10.90
2023-03-24T21:47:54.926Z,11.10
2023-03-24T21:50:24.106Z,9.80
2023-03-24T21:52:52.447Z,9.20
2023-03-24T21:55:23.358Z,9.35
2023-03-24T21:57:52.069Z,8.77
2023-03-24T22:00:20.596Z,10.40
2023-03-24T22:02:51.155Z,9.88
2023-03-24T22:05:19.493Z,8.90
2023-03-24T22:07:47.504Z,9.82
2023-03-24T22:10:15.938Z,10.32
2023-03-24T22:12:47.377Z,10.65
2023-03-24T22:15:14.842Z,10.18
2023-03-24T22:17:52.902Z,10.00
2023-03-24T22:20:21.070Z,9.75
2023-03-24T22:22:48.736Z,9.23
2023-03-24T22:25:17.849Z,9.48
2023-03-24T22:27:45.426Z,10.02
2023-03-24T22:30:14.186Z,9.18
2023-03-24T22:32:44.881Z,8.95
2023-03-24T22:35:13.844Z,8.98
2023-03-24T22:37:41.364Z,8.30
2023-03-24T22:40:10.635Z,10.00
2023-03-24T22:42:38.469Z,9.32
2023-03-24T22:45:06.466Z,9.30
2023-03-24T22:47:34.121Z,9.60
2023-03-24T22:50:01.635Z,9.77
2023-03-24T22:52:30.493Z,9.82
2023-03-24T22:55:03.439Z,9.40
2023-03-24T22:57:31.022Z,8.95
2023-03-24T23:00:06.678Z,8.68
2023-03-24T23:02:34.575Z,8.50
2023-03-24T23:05:02.153Z,8.68
2023-03-24T23:07:31.164Z,7.88
2023-03-24T23:10:02.797Z,8.00
2023-03-24T23:12:31.488Z,7.85
2023-03-24T23:15:00.604Z,8.15
2023-03-24T23:17:28.447Z,8.75
2023-03-24T23:19:56.082Z,7.97
2023-03-24T23:22:23.643Z,8.98
2023-03-24T23:25:00.566Z,8.63
2023-03-24T23:27:29.965Z,10.20
2023-03-24T23:29:57.565Z,9.05
2023-03-24T23:32:27.794Z,9.70
2023-03-24T23:34:59.547Z,10.23
2023-03-24T23:37:28.953Z,10.35
2023-03-24T23:40:01.864Z,10.30
2023-03-24T23:42:32.540Z,9.68
2023-03-24T23:44:59.999Z,10.48
2023-03-24T23:47:27.606Z,11.73
2023-03-24T23:49:55.633Z,11.60
2023-03-24T23:52:23.157Z,10.50
2023-03-24T23:54:51.081Z,11.02
2023-03-24T23:57:22.189Z,11.23
2023-03-24T23:59:53.821Z,10.20
